• Join FlightAware (Why Join?)
  • Login
  • US Flag 
07:44AM EDT


 

Airport Tracker/Info


-or-


 

Live Flight TrackerFlight Track Log ✈ AAL1471 ✈ 13-Jul-2013 ✈ KDCA - KORD

Flight Track Log - Related Links

Times and Time Zones

All times are in EDT time to prevent confusion due to time zone crossing. See the AAL1471 flight status page for this flight to view local times or setup timezone preferences in your user account.

Time Position Orientation Groundspeed Altitude Reporting Facility
EDT Latitude Longitude Course Direction KTS MPH feet Rate Location/Type
09:35PM 38.8333 -77.0333 274° West 171 197 1,800  Level Potomac TRACON
09:36PM 38.7833 -76.9833 142° Southeast 229 264 3,900 1,980 Climbing Potomac TRACON
09:37PM 38.9287 -77.4573 303° West  Level FlightAware Approximate
09:37PM 38.7333 -77.0000 195° South 265 305 5,600  Level Potomac TRACON
09:38PM 38.9333 -77.6119 270° West  Level FlightAware Approximate
09:38PM 38.7167 -77.1000 258° West 274 315 6,900  Level Potomac TRACON
09:39PM 38.9334 -77.7682 274° West  Level FlightAware Approximate
09:39PM 38.7500 -77.2000 293° West 301 346 10,300  Level Potomac TRACON
09:40PM 38.9422 -77.9241 274° West  Level FlightAware Approximate
09:40PM 38.8000 -77.3167 299° West 365 420 12,300  Level Potomac TRACON
09:42PM 38.8592 -77.5936 285° West 416 479 17,700 2,460 Climbing Washington Center
09:43PM 38.8917 -77.7625 284° West 434 499 20,000 1,620 Climbing Washington Center
09:44PM 38.9036 -77.9122 276° West 446 513 21,000 480 Climbing Washington Center
09:45PM 38.9086 -78.0753 272° West 463 533 21,000 300 Level Washington Center
09:46PM 38.9175 -78.2408 274° West 463 533 21,600 1,140 Climbing Washington Center
09:47PM 38.9239 -78.4253 273° West 463 533 23,300 1,800 Climbing Washington Center
09:48PM 38.9325 -78.5806 274° West 473 544 25,200 1,440 Climbing Washington Center
09:49PM 38.9408 -78.7517 274° West 484 557 26,200 840 Climbing Washington Center
09:50PM 38.9464 -78.9253 272° West 484 557 27,000 480 Climbing Washington Center
09:51PM 38.9561 -79.0992 274° West 484 557 27,200 1,260 Climbing Washington Center
09:52PM 38.9614 -79.2731 272° West 484 557 29,500 2,220 Climbing Washington Center
09:53PM 38.9706 -79.4417 274° West 484 557 31,700 1,980 Climbing Washington Center
09:54PM 38.9775 -79.6131 273° West 478 550 33,600 1,560 Climbing Washington Center
09:55PM 38.9844 -79.7764 273° West 478 550 34,900 960 Climbing Washington Center
09:56PM 38.9881 -79.9869 271° West 464 534 35,900 480 Climbing Indianapolis Center
09:57PM 38.9950 -80.1617 273° West 462 532 36,000  Climbing Indianapolis Center
09:58PM 38.9989 -80.3281 272° West 465 535 36,000  Level Indianapolis Center
09:59PM 39.0050 -80.4936 273° West 466 536 36,000  Level Indianapolis Center
10:00PM 39.0089 -80.6597 272° West 466 536 36,000  Level Indianapolis Center
10:01PM 39.0483 -80.8142 288° West 461 531 36,000  Level Indianapolis Center
10:02PM 39.1258 -80.9508 306° West 473 544 36,000  Level Indianapolis Center
10:03PM 39.1947 -81.0953 302° West 475 547 36,000  Level Indianapolis Center
10:04PM 39.2628 -81.2411 301° West 477 549 36,000  Level Indianapolis Center
10:05PM 39.3300 -81.3867 301° West 475 547 36,000  Level Indianapolis Center
10:06PM 39.3978 -81.5317 301° West 473 544 36,000  Level Indianapolis Center
10:07PM 39.4764 -81.7083 300° West 475 547 36,000  Level Indianapolis Center
10:08PM 39.5447 -81.8539 301° West 474 545 36,000  Level Indianapolis Center
10:09PM 39.6106 -82.0014 300° West 475 547 36,000  Level Indianapolis Center
10:10PM 39.6700 -82.1331 300° West 475 547 36,000  Level Indianapolis Center
10:11PM 39.7369 -82.2825 300° West 477 549 36,000  Level Indianapolis Center
10:12PM 39.8036 -82.4328 300° West 478 550 36,000  Level Indianapolis Center
10:14PM 39.8714 -82.5828 301° West 477 549 36,000  Level Indianapolis Center
10:15PM 39.9378 -82.7344 300° West 478 550 36,000  Level Indianapolis Center
10:16PM 40.0158 -82.9100 300° West 477 549 36,000  Level Indianapolis Center
10:17PM 40.0822 -83.0606 300° West 478 550 36,000  Level Indianapolis Center
10:18PM 40.1483 -83.2136 300° West 482 555 36,000  Level Indianapolis Center
10:19PM 40.2153 -83.3669 300° West 485 558 36,000  Level Indianapolis Center
10:20PM 40.2819 -83.5219 299° West 488 562 36,000  Level Indianapolis Center
10:21PM 40.3481 -83.6758 299° West 485 558 36,000  Level Indianapolis Center
10:22PM 40.4136 -83.8294 299° West 483 556 36,000  Level Indianapolis Center
10:23PM 40.4806 -83.9853 299° West 485 558 36,000  Level Indianapolis Center
10:24PM 40.5469 -84.1419 299° West 487 560 36,000  Level Indianapolis Center
10:25PM 40.6111 -84.2989 298° West 484 557 36,000  Level Indianapolis Center
10:26PM 40.6775 -84.4542 299° West 485 558 36,000  Level Indianapolis Center
10:27PM 40.7253 -84.6178 291° West 476 548 36,000  Level Indianapolis Center
10:28PM 40.7789 -84.7808 294° West 480 552 36,000  Level Indianapolis Center
10:29PM 40.8308 -84.9392 293° West 485 558 36,000  Level Indianapolis Center
10:29PM 40.8589 -85.0286 293° West 482 555 36,000  Level Chicago Center
10:30PM 40.9111 -85.1906 293° West 479 551 36,000  Level Chicago Center
10:31PM 40.9628 -85.3556 293° West 482 555 36,000 -300 Level Chicago Center
10:32PM 41.0147 -85.5225 292° West 487 560 35,400 -1,440 Descending Chicago Center
10:33PM 41.0675 -85.6875 293° West 486 559 33,100 -2,280 Descending Chicago Center
10:34PM 41.1200 -85.8547 293° West 488 562 30,800 -2,340 Descending Chicago Center
10:35PM 41.1742 -86.0297 292° West 506 582 28,400 -2,580 Descending Chicago Center
10:36PM 41.2281 -86.2061 292° West 513 590 25,600 -2,820 Descending Chicago Center
10:37PM 41.2817 -86.3822 292° West 514 592 22,700 -2,880 Descending Chicago Center
10:38PM 41.3336 -86.5492 293° West 487 560 19,800 -2,820 Descending Chicago Center
10:39PM 41.3875 -86.7278 292° West 466 536 17,000 -2,640 Descending Chicago Center
10:40PM 41.4333 -86.8781 292° West 446 513 14,500 -2,340 Descending Chicago Center
10:41PM 41.4750 -87.0186 292° West 416 479 12,300 -1,740 Descending Chicago Center
10:42PM 41.5164 -87.1556 292° West 403 464 11,000 -660 Descending Chicago Center
10:43PM 41.5875 -87.2700 310° West 401 461 11,000  Level Chicago Center
10:44PM 41.6756 -87.4072 311° West 408 470 11,000  Level Chicago Center
10:45PM 41.7461 -87.5211 310° West 405 466 11,000  Level Chicago Center
10:46PM 41.8178 -87.6333 311° West 403 464 11,000 -240 Level Chicago Center
10:48PM 41.8847 -87.7117 319° Northwest 327 376 10,600 -900 Descending Chicago Center
10:49PM 41.9586 -87.7750 327° Northwest 318 366 9,200 -1,020 Descending Chicago Center
10:50PM 42.0244 -87.8331 327° Northwest 285 328 8,600 -1,140 Descending Chicago Center
10:51PM 42.0794 -87.8908 322° Northwest 257 296 6,900 -1,800 Descending Chicago Center
10:51PM 42.1167 -87.9333 320° Northwest 245 282 5,800 -1,260 Descending Chicago TRACON
10:52PM 42.1667 -88.0000 315° West 245 282 5,000 -1,020 Descending Chicago TRACON
10:53PM 42.1500 -88.0667 251° West 226 260 3,800 -1,200 Descending Chicago TRACON
10:54PM 42.1314 -88.0781 204° Southwest 213 245 3,200 -1,020 Descending Chicago Center
10:54PM 42.1000 -88.0667 165° South 156 180 2,700 -840 Descending Chicago TRACON